Main page
METAR-TAF:

METAR-TAF

Airports :

Humberside Airport

Humberside, England

latitude: 53-35N, longitude: 000-21W, elevation: 31 m

Current weather observation

The report was made 12 minutes ago, at 13:20 UTC
Wind 10 kt from the East/Northeast
Temperature 28°C
Humidity 62%
Pressure 1016 hPa
Visibility 10 km or more
no clouds below 1500 m and no cumulonimbus

METAR: EGNJ 111320Z 06010KT CAVOK 28/20 Q1016

Time: 14:32 (13:32 UTC)

Forecast

The report was made 2 hours and 28 minutes ago, at 11:04 UTC
Forecast valid from 11 at 12 UTC to 11 at 21 UTC
Wind 8 kt from the East/Northeast
Visibility 10 km or more
Few clouds at a height of 4500 ft
Probability 40% :
Temporary
from 11 at 12 UTC to 11 at 21 UTC
Visibility: 7000 m
rain showers

TAF: EGNJ 111104Z 1112/1121 06008KT 9999 FEW045 PROB40 TEMPO 1112/1121 7000 SHRA

Weather observations and forecasts of more than 4000 airports (METAR and TAF reports).

The available stations are represented by yellow and red dots on the map.

Hover mouse over dot to see the name of the station.

Then click to see weather observations and forecasts.

To change the map : click on the green buttons with a black cross to zoom in, on the green button with a dash to zoom out, or on the green arrows for adjacent maps.


METAR-TAF: